Time;durP1;ratioP1;P1;durP2;ratioP2;P2;SDS_P1;SDS_P2;PMS_P1;PMS_P2;Temp;Humidity;BMP_temperature;BMP_pressure;BME280_temperature;BME280_humidity;BME280_pressure;Samples;Min_cycle;Max_cycle;Signal;HPM_P1;HPM_P2
2023/07/06 00:01:25;;;;;;;6.50;3.43;;;16.50;1.00;;;;;;5011559;28;20447;-77
2023/07/06 00:03:51;;;;;;;5.00;3.67;;;16.50;1.00;;;;;;5010561;28;20366;-77
2023/07/06 00:06:17;;;;;;;6.67;3.30;;;16.40;1.00;;;;;;5009165;28;20448;-77
2023/07/06 00:08:43;;;;;;;5.57;3.40;;;16.30;1.00;;;;;;5010569;28;20186;-79
2023/07/06 00:11:09;;;;;;;5.07;2.97;;;16.20;1.00;;;;;;5010247;28;20468;-77
2023/07/06 00:13:36;;;;;;;4.60;3.00;;;16.20;1.00;;;;;;5016842;28;20493;-78
2023/07/06 00:16:02;;;;;;;4.57;3.30;;;16.30;1.00;;;;;;5014288;28;20429;-78
2023/07/06 00:18:28;;;;;;;7.50;3.10;;;16.10;1.00;;;;;;5011961;28;20524;-77
2023/07/06 00:20:54;;;;;;;4.67;3.00;;;16.10;1.00;;;;;;5009679;28;20934;-77
2023/07/06 00:23:23;;;;;;;5.23;3.00;;;16.10;1.00;;;;;;5010198;28;20445;-78
2023/07/06 00:25:48;;;;;;;4.93;3.00;;;16.20;1.00;;;;;;5011047;28;20222;-77
2023/07/06 00:28:14;;;;;;;7.23;2.97;;;16.20;1.00;;;;;;5009922;28;20476;-78
2023/07/06 00:33:19;;;;;;;8.23;3.77;;;16.20;1.00;;;;;;5010300;28;20214;-77
2023/07/06 00:35:45;;;;;;;5.33;2.70;;;16.30;1.00;;;;;;5011870;28;20787;-79
2023/07/06 00:38:14;;;;;;;4.30;3.00;;;16.30;1.00;;;;;;5012415;28;20441;-78
2023/07/06 00:40:42;;;;;;;5.53;3.00;;;16.40;1.00;;;;;;5008431;28;20461;-76
2023/07/06 00:43:16;;;;;;;4.93;2.83;;;16.40;1.00;;;;;;5014405;28;20456;-77
2023/07/06 00:45:44;;;;;;;6.97;3.27;;;16.50;1.00;;;;;;5011514;28;20571;-77
2023/07/06 00:48:17;;;;;;;8.70;3.80;;;16.50;1.00;;;;;;5010537;28;20449;-77
2023/07/06 00:50:42;;;;;;;5.17;2.93;;;16.40;1.00;;;;;;5025731;28;20440;-77
2023/07/06 00:53:14;;;;;;;6.20;3.37;;;16.40;1.00;;;;;;5019055;28;20460;-77
2023/07/06 00:55:40;;;;;;;10.60;3.50;;;16.40;1.00;;;;;;5010166;28;20192;-77
2023/07/06 00:58:14;;;;;;;7.40;3.60;;;16.30;1.00;;;;;;5020255;28;20444;-77
2023/07/06 01:00:40;;;;;;;4.47;3.40;;;16.20;1.00;;;;;;5009782;28;20551;-78
2023/07/06 01:03:07;;;;;;;3.93;3.03;;;16.10;1.00;;;;;;5020070;28;20872;-77
2023/07/06 01:05:33;;;;;;;6.50;3.67;;;17.00;1.00;;;;;;5016047;28;20445;-78
2023/07/06 01:08:06;;;;;;;7.10;3.00;;;16.10;1.00;;;;;;5016205;28;20437;-76
2023/07/06 01:10:33;;;;;;;4.80;2.90;;;16.00;1.00;;;;;;5005720;28;20190;-79
2023/07/06 01:13:00;;;;;;;5.50;3.50;;;16.00;1.00;;;;;;5014061;28;20549;-78
2023/07/06 01:15:31;;;;;;;8.07;3.17;;;15.90;1.00;;;;;;5012522;28;20930;-80
2023/07/06 01:18:18;;;;;;;5.53;3.23;;;16.00;1.00;;;;;;5013004;28;20491;-79
2023/07/06 01:20:53;;;;;;;4.10;2.90;;;15.90;1.00;;;;;;5005262;28;20470;-78
2023/07/06 01:23:48;;;;;;;3.53;2.90;;;15.90;1.00;;;;;;5012469;28;20468;-77
2023/07/06 01:26:40;;;;;;;4.20;2.97;;;15.80;1.00;;;;;;5012971;28;20438;-77
2023/07/06 01:29:35;;;;;;;3.97;2.83;;;15.80;1.00;;;;;;5010577;28;20436;-78
2023/07/06 01:32:04;;;;;;;5.40;3.30;;;15.70;1.00;;;;;;5007937;28;20859;-78
2023/07/06 01:34:48;;;;;;;3.70;2.80;;;15.50;1.00;;;;;;5009221;28;20495;-77
2023/07/06 01:37:29;;;;;;;7.53;3.33;;;15.40;1.00;;;;;;5005895;28;20460;-77
2023/07/06 01:39:57;;;;;;;8.27;3.67;;;15.20;1.00;;;;;;5019073;28;20503;-77
2023/07/06 01:42:29;;;;;;;5.80;3.40;;;15.10;1.00;;;;;;5010025;28;20528;-77
2023/07/06 01:45:05;;;;;;;5.43;3.27;;;15.00;1.00;;;;;;5010399;28;20766;-77
2023/07/06 01:47:34;;;;;;;5.23;3.20;;;15.00;1.00;;;;;;5017156;28;21002;-78
2023/07/06 01:50:02;;;;;;;5.20;3.20;;;14.80;1.00;;;;;;5017495;28;20449;-77
2023/07/06 01:52:30;;;;;;;5.50;2.63;;;14.80;1.00;;;;;;5015622;28;20441;-77
2023/07/06 01:55:09;;;;;;;8.33;3.50;;;14.80;1.00;;;;;;5016110;28;20563;-77
2023/07/06 01:57:43;;;;;;;4.73;3.37;;;14.80;1.00;;;;;;5013041;28;20436;-77
2023/07/06 02:00:14;;;;;;;5.80;3.10;;;14.80;1.00;;;;;;5019350;28;20474;-78
2023/07/06 02:02:44;;;;;;;6.17;3.20;;;14.90;1.00;;;;;;5016307;28;20947;-77
2023/07/06 02:05:12;;;;;;;5.00;3.20;;;14.90;1.00;;;;;;5014462;28;20447;-78
2023/07/06 02:07:40;;;;;;;6.87;3.10;;;14.80;1.00;;;;;;5007791;28;20437;-77
2023/07/06 02:10:06;;;;;;;5.73;3.10;;;14.90;1.00;;;;;;5017428;28;20475;-78
2023/07/06 02:12:32;;;;;;;6.50;3.40;;;15.00;1.00;;;;;;5014298;28;20481;-77
2023/07/06 02:14:58;;;;;;;5.70;3.30;;;15.00;1.00;;;;;;5013425;28;20599;-77
2023/07/06 02:17:23;;;;;;;4.87;3.27;;;15.10;1.00;;;;;;5006623;28;20212;-78
2023/07/06 02:19:49;;;;;;;6.20;3.30;;;15.00;1.00;;;;;;5009988;28;20488;-77
2023/07/06 02:22:17;;;;;;;5.60;3.10;;;14.90;1.00;;;;;;5010529;28;20259;-77
2023/07/06 02:24:43;;;;;;;6.43;3.23;;;14.90;1.00;;;;;;5011746;28;20459;-77
2023/07/06 02:27:10;;;;;;;6.10;3.27;;;14.80;1.00;;;;;;5009950;28;20445;-77
2023/07/06 02:29:36;;;;;;;5.70;3.00;;;14.70;1.00;;;;;;5015761;28;20440;-77
2023/07/06 02:32:02;;;;;;;8.93;3.40;;;14.50;1.00;;;;;;5008596;28;20434;-76
2023/07/06 02:34:28;;;;;;;6.13;3.50;;;14.50;1.00;;;;;;5012515;28;20460;-76
2023/07/06 02:36:54;;;;;;;4.60;3.23;;;14.30;1.00;;;;;;5024689;28;20607;-77
2023/07/06 02:39:24;;;;;;;11.27;3.30;;;14.20;1.00;;;;;;5008495;28;20210;-78
2023/07/06 02:41:54;;;;;;;11.00;3.60;;;14.20;1.00;;;;;;5020085;28;20559;-77
2023/07/06 02:44:21;;;;;;;4.50;3.20;;;14.20;1.00;;;;;;5014075;28;20462;-78
2023/07/06 02:46:47;;;;;;;5.43;3.30;;;14.20;1.00;;;;;;5011031;28;20551;-79
2023/07/06 02:49:13;;;;;;;6.87;3.20;;;14.10;1.00;;;;;;5006367;28;20433;-79
2023/07/06 02:51:40;;;;;;;6.00;3.30;;;14.00;1.00;;;;;;5008066;28;20527;-77
2023/07/06 02:54:06;;;;;;;4.87;3.40;;;14.00;1.00;;;;;;5006192;28;20202;-78
2023/07/06 02:56:32;;;;;;;4.57;3.10;;;14.00;1.00;;;;;;5007568;28;20448;-76
2023/07/06 02:58:57;;;;;;;6.33;3.30;;;14.10;1.00;;;;;;5021040;28;20575;-77
2023/07/06 03:01:23;;;;;;;5.33;3.60;;;14.10;1.00;;;;;;5023036;28;20546;-78
2023/07/06 03:03:51;;;;;;;3.60;2.87;;;14.10;1.00;;;;;;5016142;28;20376;-77
2023/07/06 03:06:18;;;;;;;7.40;3.63;;;14.10;1.00;;;;;;5013090;28;20543;-80
2023/07/06 03:08:44;;;;;;;4.03;3.27;;;14.00;1.00;;;;;;5018313;28;20550;-79
2023/07/06 03:11:14;;;;;;;4.60;3.30;;;14.00;1.00;;;;;;5020972;28;20444;-78
2023/07/06 03:13:39;;;;;;;4.23;3.20;;;14.00;1.00;;;;;;5017861;28;20460;-79
2023/07/06 03:16:07;;;;;;;6.10;3.40;;;13.90;1.00;;;;;;5025173;28;20436;-77
2023/07/06 03:18:32;;;;;;;8.10;3.20;;;13.90;1.00;;;;;;5021166;28;20182;-77
2023/07/06 03:20:58;;;;;;;4.00;2.80;;;13.80;1.00;;;;;;5016317;28;20444;-77
2023/07/06 03:23:23;;;;;;;4.77;3.10;;;13.80;1.00;;;;;;5019866;28;20197;-77
2023/07/06 03:25:53;;;;;;;7.00;3.60;;;13.70;1.00;;;;;;5014043;28;20179;-77
2023/07/06 03:28:20;;;;;;;8.07;4.00;;;13.70;1.00;;;;;;5019480;28;20279;-75
2023/07/06 03:30:53;;;;;;;5.10;3.50;;;13.70;1.00;;;;;;5015236;28;20438;-76
2023/07/06 03:33:19;;;;;;;5.97;3.30;;;13.70;1.00;;;;;;5012233;28;20460;-78
2023/07/06 03:35:45;;;;;;;6.47;3.30;;;13.70;1.00;;;;;;5016446;28;20444;-78
2023/07/06 03:38:12;;;;;;;5.53;3.47;;;13.60;1.00;;;;;;5012582;28;20199;-77
2023/07/06 03:40:38;;;;;;;5.67;3.50;;;13.60;1.00;;;;;;5010399;28;20209;-77
2023/07/06 03:43:04;;;;;;;5.90;3.60;;;13.60;1.00;;;;;;5016952;28;20669;-77
2023/07/06 03:45:30;;;;;;;5.60;3.33;;;13.70;1.00;;;;;;5013757;28;20784;-77
2023/07/06 03:47:56;;;;;;;5.60;3.30;;;13.70;1.00;;;;;;5011857;28;20434;-77
2023/07/06 03:50:21;;;;;;;7.27;3.60;;;13.70;1.00;;;;;;5010387;28;20813;-77
2023/07/06 03:52:47;;;;;;;6.07;3.60;;;13.50;1.00;;;;;;5010594;28;20179;-77
2023/07/06 03:55:31;;;;;;;5.23;3.23;;;13.50;1.00;;;;;;5018507;28;20194;-76
2023/07/06 03:58:00;;;;;;;5.50;3.37;;;13.50;1.00;;;;;;5023423;28;20468;-77
2023/07/06 04:00:27;;;;;;;8.70;3.63;;;13.50;1.00;;;;;;5013667;28;20468;-79
2023/07/06 04:03:00;;;;;;;4.90;3.23;;;13.50;1.00;;;;;;5017260;28;20507;-79
2023/07/06 04:05:32;;;;;;;4.73;3.47;;;13.50;1.00;;;;;;5024803;28;20440;-79
2023/07/06 04:07:59;;;;;;;5.60;3.10;;;13.50;1.00;;;;;;5028972;28;20934;-77
2023/07/06 04:10:28;;;;;;;4.60;2.97;;;13.40;1.00;;;;;;5011471;28;20436;-77
2023/07/06 04:12:53;;;;;;;13.53;3.30;;;13.40;1.00;;;;;;5018790;28;20829;-77
2023/07/06 04:15:19;;;;;;;9.03;3.10;;;13.50;1.00;;;;;;5018850;28;20524;-77
2023/07/06 04:17:47;;;;;;;6.50;3.50;;;13.60;1.00;;;;;;5016968;28;20473;-78
2023/07/06 04:20:22;;;;;;;6.10;3.53;;;13.60;1.00;;;;;;5013726;28;20210;-77
2023/07/06 04:22:49;;;;;;;4.40;3.00;;;13.80;1.00;;;;;;5016249;28;20440;-77
2023/07/06 04:25:18;;;;;;;3.93;3.17;;;13.80;1.00;;;;;;5013244;28;20942;-77
2023/07/06 04:27:44;;;;;;;5.10;2.90;;;13.90;1.00;;;;;;5015778;28;20548;-77
2023/07/06 04:30:14;;;;;;;4.20;3.07;;;14.00;1.00;;;;;;5010822;28;21001;-77
2023/07/06 04:32:41;;;;;;;5.63;3.20;;;14.20;1.00;;;;;;5012360;28;20174;-76
2023/07/06 04:35:11;;;;;;;6.30;3.27;;;14.20;1.00;;;;;;5008738;28;20457;-79
2023/07/06 04:37:37;;;;;;;4.93;3.07;;;14.20;1.00;;;;;;5010335;28;20529;-77
2023/07/06 04:40:11;;;;;;;9.97;2.97;;;14.30;1.00;;;;;;5010591;28;20539;-78
2023/07/06 04:42:37;;;;;;;7.50;3.93;;;14.40;1.00;;;;;;5010368;28;20651;-77
2023/07/06 04:45:04;;;;;;;9.70;3.27;;;14.40;1.00;;;;;;5009525;28;20494;-77
2023/07/06 04:47:29;;;;;;;7.93;3.40;;;14.50;1.00;;;;;;5010211;28;20838;-77
2023/07/06 04:49:55;;;;;;;10.70;3.03;;;14.50;1.00;;;;;;5010358;28;20433;-76
2023/07/06 04:52:20;;;;;;;5.30;3.60;;;14.60;1.00;;;;;;5018961;28;20191;-77
2023/07/06 04:54:48;;;;;;;4.10;3.00;;;14.70;1.00;;;;;;5012151;28;20572;-77
2023/07/06 04:57:16;;;;;;;9.37;3.50;;;14.80;1.00;;;;;;5020664;28;20181;-74
2023/07/06 04:59:43;;;;;;;5.97;3.40;;;14.90;1.00;;;;;;5019082;28;20472;-77
2023/07/06 05:02:10;;;;;;;6.83;3.53;;;14.90;1.00;;;;;;5010588;28;20441;-76
2023/07/06 05:04:40;;;;;;;4.90;3.50;;;15.00;1.00;;;;;;5018733;28;20484;-77
2023/07/06 05:07:11;;;;;;;8.00;3.53;;;15.10;1.00;;;;;;5018958;28;20515;-75
2023/07/06 05:09:38;;;;;;;4.70;3.00;;;15.30;1.00;;;;;;5015913;28;20441;-77
2023/07/06 05:12:03;;;;;;;4.73;3.07;;;15.60;1.00;;;;;;5011567;28;20981;-75
2023/07/06 05:14:29;;;;;;;5.57;3.50;;;15.50;1.00;;;;;;5016231;28;20503;-77
2023/07/06 05:16:55;;;;;;;10.67;3.60;;;15.60;1.00;;;;;;5015208;28;20217;-78
2023/07/06 05:19:23;;;;;;;4.20;3.20;;;15.70;1.00;;;;;;5001876;28;20213;-77
2023/07/06 05:21:48;;;;;;;3.97;3.40;;;17.10;1.00;;;;;;5001199;28;20227;-78
2023/07/06 05:24:14;;;;;;;5.70;3.77;;;15.90;1.00;;;;;;5009426;28;20457;-77
2023/07/06 05:26:39;;;;;;;5.47;3.80;;;16.00;1.00;;;;;;5015153;28;20190;-78
2023/07/06 05:29:05;;;;;;;8.80;3.57;;;16.10;1.00;;;;;;5007006;28;20197;-78
2023/07/06 05:31:31;;;;;;;6.73;4.20;;;16.10;1.00;;;;;;5011278;28;20727;-79
2023/07/06 05:33:56;;;;;;;11.80;4.00;;;16.40;1.00;;;;;;5009451;28;20198;-77
2023/07/06 05:36:22;;;;;;;9.20;4.03;;;16.30;1.00;;;;;;5007173;28;20224;-78
2023/07/06 05:38:47;;;;;;;13.03;3.43;;;16.40;1.00;;;;;;5010403;28;20797;-77
2023/07/06 05:41:13;;;;;;;12.57;4.07;;;16.60;1.00;;;;;;5022296;28;20190;-77
2023/07/06 05:43:38;;;;;;;6.13;4.23;;;16.70;1.00;;;;;;5007369;28;20230;-78
2023/07/06 05:46:04;;;;;;;6.33;3.90;;;16.70;1.00;;;;;;5031886;23;20218;-73
2023/07/06 05:48:30;;;;;;;6.57;4.17;;;16.80;1.00;;;;;;5009091;28;20186;-73
2023/07/06 05:50:55;;;;;;;9.47;3.73;;;16.90;1.00;;;;;;5006654;28;20190;-73
2023/07/06 05:53:21;;;;;;;14.00;4.10;;;16.90;1.00;;;;;;5003896;28;20433;-74
2023/07/06 05:55:46;;;;;;;7.97;4.60;;;17.10;1.00;;;;;;4998243;28;20670;-75
2023/07/06 05:58:13;;;;;;;5.00;3.83;;;17.10;1.00;;;;;;5000500;28;20605;-76
2023/07/06 06:00:42;;;;;;;6.90;4.20;;;17.10;1.00;;;;;;5005870;28;20205;-76
2023/07/06 06:03:08;;;;;;;8.00;3.90;;;17.40;1.00;;;;;;5002103;28;20471;-74
2023/07/06 06:05:34;;;;;;;7.53;3.90;;;17.50;1.00;;;;;;5007276;28;20547;-75
2023/07/06 06:08:01;;;;;;;7.20;4.17;;;17.50;1.00;;;;;;5007684;28;20190;-75
2023/07/06 06:10:28;;;;;;;5.77;4.20;;;17.70;1.00;;;;;;5003408;28;20550;-74
2023/07/06 06:12:54;;;;;;;6.63;4.20;;;17.70;1.00;;;;;;5005833;28;20448;-74
2023/07/06 06:15:20;;;;;;;7.97;4.47;;;17.90;1.00;;;;;;5007997;28;20445;-76
2023/07/06 06:17:47;;;;;;;7.77;4.00;;;18.00;1.00;;;;;;5009493;28;20255;-75
2023/07/06 06:20:13;;;;;;;10.80;4.57;;;18.10;1.00;;;;;;5005630;28;20475;-74
2023/07/06 06:22:40;;;;;;;8.03;3.77;;;18.30;1.00;;;;;;5003929;28;20495;-74
2023/07/06 06:25:06;;;;;;;7.53;4.53;;;18.30;1.00;;;;;;5001117;28;20442;-74
2023/07/06 06:27:32;;;;;;;8.30;4.40;;;18.30;1.00;;;;;;5004157;28;20591;-74
2023/07/06 06:29:58;;;;;;;9.50;4.40;;;18.40;1.00;;;;;;5006321;28;20461;-74
2023/07/06 06:32:25;;;;;;;7.60;4.60;;;18.60;1.00;;;;;;5005053;28;20445;-74
2023/07/06 06:34:50;;;;;;;11.67;4.63;;;18.70;1.00;;;;;;5006741;28;20445;-75
2023/07/06 06:37:16;;;;;;;11.80;4.33;;;18.80;1.00;;;;;;5006830;28;20496;-74
2023/07/06 06:39:43;;;;;;;8.83;4.00;;;18.90;1.00;;;;;;5004422;28;20225;-74
2023/07/06 06:42:09;;;;;;;5.50;3.73;;;19.00;1.00;;;;;;5004343;28;20532;-74
2023/07/06 06:44:35;;;;;;;5.60;3.87;;;19.10;1.00;;;;;;5005639;28;20518;-76
2023/07/06 06:47:04;;;;;;;6.93;3.67;;;19.20;1.00;;;;;;5002595;28;20902;-72
2023/07/06 06:49:30;;;;;;;7.53;3.80;;;19.20;1.00;;;;;;5004361;28;20195;-75
2023/07/06 06:51:56;;;;;;;8.90;4.63;;;19.30;1.00;;;;;;5007911;28;20436;-71
2023/07/06 06:54:21;;;;;;;8.60;4.97;;;19.50;1.00;;;;;;5001418;28;20455;-74
2023/07/06 06:56:49;;;;;;;8.43;4.03;;;19.60;1.00;;;;;;5004382;28;20206;-73
2023/07/06 06:59:15;;;;;;;14.03;3.83;;;19.70;1.00;;;;;;5001430;28;20672;-73
2023/07/06 07:01:40;;;;;;;8.03;4.10;;;19.80;1.00;;;;;;5004506;28;20429;-71
2023/07/06 07:04:09;;;;;;;8.00;3.70;;;19.80;1.00;;;;;;5006608;28;20185;-74
2023/07/06 07:06:38;;;;;;;7.87;3.83;;;19.90;1.00;;;;;;5007102;28;20284;-72
2023/07/06 07:09:04;;;;;;;12.17;3.70;;;20.00;1.00;;;;;;5009062;28;20966;-73
2023/07/06 07:11:30;;;;;;;10.50;4.17;;;20.10;1.00;;;;;;5007989;28;20432;-73
2023/07/06 07:13:55;;;;;;;6.13;3.50;;;20.30;1.00;;;;;;5007680;28;20437;-71
2023/07/06 07:16:21;;;;;;;9.50;3.50;;;20.40;1.00;;;;;;5008632;28;20263;-73
2023/07/06 07:18:48;;;;;;;12.00;3.60;;;20.50;1.00;;;;;;5009184;28;20186;-73
2023/07/06 07:21:14;;;;;;;7.40;3.97;;;20.60;1.00;;;;;;5011082;28;20441;-74
2023/07/06 07:23:45;;;;;;;8.00;3.80;;;20.80;1.00;;;;;;5009041;28;21066;-74
2023/07/06 07:26:19;;;;;;;7.00;3.60;;;20.80;1.00;;;;;;5009030;28;20464;-73
2023/07/06 07:28:48;;;;;;;9.17;4.10;;;20.90;1.00;;;;;;5011624;28;20507;-73
2023/07/06 07:31:14;;;;;;;6.47;3.83;;;21.00;1.00;;;;;;5009734;28;20515;-73
2023/07/06 07:33:43;;;;;;;8.87;3.77;;;21.20;1.00;;;;;;5008838;28;20479;-72
2023/07/06 07:36:11;;;;;;;5.83;3.70;;;21.30;1.00;;;;;;5007096;28;20209;-75
2023/07/06 07:38:37;;;;;;;7.03;3.50;;;21.50;1.00;;;;;;5008605;28;20437;-74
2023/07/06 07:41:07;;;;;;;9.97;3.57;;;21.70;1.00;;;;;;5010487;28;20476;-73
2023/07/06 07:43:34;;;;;;;9.30;4.10;;;21.80;1.00;;;;;;5008700;28;20930;-73
2023/07/06 07:46:06;;;;;;;5.77;3.40;;;22.00;1.00;;;;;;5008739;28;20492;-74
2023/07/06 07:48:33;;;;;;;7.10;3.60;;;22.40;1.00;;;;;;5007947;28;20449;-74
2023/07/06 07:51:02;;;;;;;9.07;4.07;;;22.70;1.00;;;;;;5010243;28;20443;-74
2023/07/06 07:53:32;;;;;;;8.03;3.40;;;23.00;1.00;;;;;;5008979;28;20452;-75
2023/07/06 07:55:58;;;;;;;6.10;3.30;;;23.30;1.00;;;;;;5008708;28;20549;-73
2023/07/06 07:58:23;;;;;;;7.33;3.60;;;23.60;1.00;;;;;;5008142;28;20514;-72
2023/07/06 08:00:50;;;;;;;6.63;3.30;;;23.70;1.00;;;;;;5009867;28;20612;-76
2023/07/06 08:03:17;;;;;;;6.50;3.53;;;23.90;1.00;;;;;;5006853;28;20205;-72
2023/07/06 08:05:43;;;;;;;7.17;3.50;;;24.10;1.00;;;;;;5007087;28;20448;-75
2023/07/06 08:08:10;;;;;;;8.20;3.73;;;24.10;1.00;;;;;;5010086;28;20550;-73
2023/07/06 08:10:39;;;;;;;9.57;3.60;;;24.00;1.00;;;;;;5007169;28;20471;-72
2023/07/06 08:13:06;;;;;;;8.20;3.77;;;23.90;1.00;;;;;;5009042;28;20850;-73
2023/07/06 08:15:32;;;;;;;7.67;3.70;;;;;;;;;;5009292;28;20494;-74
2023/07/06 08:18:00;;;;;;;8.00;3.67;;;24.20;1.00;;;;;;5009916;28;20436;-75
2023/07/06 08:20:29;;;;;;;9.33;3.33;;;24.50;1.00;;;;;;5009958;28;20460;-73
2023/07/06 08:22:59;;;;;;;8.13;3.20;;;24.70;1.00;;;;;;4996307;28;20959;-75
2023/07/06 08:25:27;;;;;;;7.73;3.90;;;24.80;1.00;;;;;;5009895;28;20535;-75
2023/07/06 08:27:54;;;;;;;8.23;3.30;;;24.60;1.00;;;;;;5008898;28;20522;-73
2023/07/06 08:30:21;;;;;;;10.73;3.60;;;24.40;1.00;;;;;;5010140;28;20450;-73
2023/07/06 08:32:50;;;;;;;7.30;3.30;;;24.50;1.00;;;;;;5007846;28;20515;-76
2023/07/06 08:35:19;;;;;;;8.20;3.63;;;24.80;1.00;;;;;;5009056;28;20795;-75
2023/07/06 08:37:45;;;;;;;5.80;3.40;;;25.00;1.00;;;;;;5005022;28;20897;-75
2023/07/06 08:40:14;;;;;;;6.40;3.30;;;25.20;1.00;;;;;;5003482;28;20473;-73
2023/07/06 08:42:43;;;;;;;5.83;3.57;;;25.60;1.00;;;;;;5007222;28;20189;-76
2023/07/06 08:45:15;;;;;;;9.30;3.50;;;25.50;1.00;;;;;;5006902;28;20819;-75
2023/07/06 08:47:40;;;;;;;7.30;3.23;;;25.80;1.00;;;;;;5005804;28;20480;-74
2023/07/06 08:50:09;;;;;;;6.40;3.20;;;26.10;1.00;;;;;;5005109;28;20441;-73
2023/07/06 08:52:35;;;;;;;5.47;3.00;;;26.20;1.00;;;;;;5007021;28;20539;-74
2023/07/06 08:55:03;;;;;;;5.53;2.80;;;26.60;1.00;;;;;;5005936;28;20444;-74
2023/07/06 08:57:30;;;;;;;7.20;3.83;;;26.50;1.00;;;;;;5010013;28;20480;-74
2023/07/06 08:59:56;;;;;;;5.40;2.80;;;26.40;1.00;;;;;;5006620;28;20812;-74
2023/07/06 09:02:27;;;;;;;6.40;3.03;;;27.00;1.00;;;;;;5003288;28;20437;-76
2023/07/06 09:04:55;;;;;;;8.27;3.47;;;27.50;1.00;;;;;;5005931;28;20536;-75
2023/07/06 09:07:34;;;;;;;5.53;3.33;;;27.70;1.00;;;;;;5007723;28;20468;-75
2023/07/06 09:10:01;;;;;;;7.17;3.30;;;27.30;1.00;;;;;;5004231;28;20440;-74
2023/07/06 09:12:36;;;;;;;6.27;3.80;;;27.10;1.00;;;;;;5006639;28;20451;-74
2023/07/06 09:15:03;;;;;;;6.30;3.23;;;27.20;1.00;;;;;;5008788;28;20490;-75
2023/07/06 09:17:30;;;;;;;7.17;3.50;;;27.50;1.00;;;;;;5007029;28;20468;-73
2023/07/06 09:19:56;;;;;;;8.53;3.47;;;28.20;1.00;;;;;;5006039;28;20202;-75
2023/07/06 09:22:22;;;;;;;8.57;3.13;;;29.70;1.00;;;;;;5005100;28;20193;-74
2023/07/06 09:24:49;;;;;;;7.70;3.30;;;30.00;1.00;;;;;;5005765;28;20178;-76
2023/07/06 09:27:27;;;;;;;8.13;3.20;;;29.80;1.00;;;;;;5009324;28;20241;-74
2023/07/06 09:30:05;;;;;;;7.80;3.13;;;30.40;1.00;;;;;;5005630;28;20208;-75
2023/07/06 09:32:32;;;;;;;10.77;3.17;;;32.00;1.00;;;;;;5004721;28;20190;-76
2023/07/06 09:35:08;;;;;;;6.40;3.35;;;33.00;1.00;;;;;;5007870;28;20568;-75
2023/07/06 09:37:42;;;;;;;7.00;3.75;;;34.00;1.00;;;;;;5007399;28;20678;-75
2023/07/06 09:40:09;;;;;;;5.00;2.85;;;34.40;1.00;;;;;;5005863;28;20204;-74
2023/07/06 09:42:36;;;;;;;5.38;3.10;;;34.30;1.00;;;;;;5008823;28;20201;-74
2023/07/06 09:45:13;;;;;;;7.00;3.85;;;33.10;1.00;;;;;;5006982;28;20182;-76
2023/07/06 09:47:47;;;;;;;8.27;3.10;;;32.50;1.00;;;;;;5006958;28;20516;-74
2023/07/06 09:50:21;;;;;;;6.75;2.88;;;32.30;1.00;;;;;;5007579;28;20265;-77
2023/07/06 09:52:47;;;;;;;18.55;12.00;;;31.30;1.00;;;;;;5006401;28;20212;-75
2023/07/06 09:55:25;;;;;;;11.20;5.93;;;30.10;1.00;;;;;;5004143;28;20331;-76
2023/07/06 09:57:51;;;;;;;7.75;4.80;;;28.80;1.00;;;;;;5004410;28;20663;-75
2023/07/06 10:00:22;;;;;;;16.33;7.45;;;28.10;1.00;;;;;;5002773;28;20707;-74
2023/07/06 10:03:07;;;;;;;8.27;4.40;;;27.60;1.00;;;;;;5004304;28;20182;-74
2023/07/06 10:05:49;;;;;;;6.72;2.95;;;31.40;1.00;;;;;;5004797;28;20178;-75
2023/07/06 10:08:26;;;;;;;4.57;3.08;;;31.50;1.00;;;;;;5006682;28;20189;-75
2023/07/06 10:11:02;;;;;;;4.55;2.85;;;31.30;1.00;;;;;;5008117;28;20266;-76
2023/07/06 10:13:56;;;;;;;5.53;2.90;;;30.70;1.00;;;;;;5007246;28;20571;-76
2023/07/06 10:16:42;;;;;;;9.82;3.08;;;29.80;1.00;;;;;;5010771;28;20212;-75
2023/07/06 10:19:17;;;;;;;9.85;3.00;;;29.10;1.00;;;;;;5002177;28;20237;-74
2023/07/06 10:21:55;;;;;;;5.20;2.80;;;28.50;1.00;;;;;;5012649;28;20235;-75
2023/07/06 10:24:49;;;;;;;13.57;3.17;;;28.40;1.00;;;;;;5011535;28;20181;-73
2023/07/06 10:27:24;;;;;;;8.17;3.30;;;28.20;1.00;;;;;;5005301;28;20224;-74
2023/07/06 10:29:54;;;;;;;8.17;3.67;;;28.70;1.00;;;;;;5008334;28;20295;-74
2023/07/06 10:32:27;;;;;;;6.13;3.38;;;30.00;1.00;;;;;;5007486;28;20186;-75
2023/07/06 10:34:58;;;;;;;10.82;3.28;;;30.00;1.00;;;;;;5009495;28;20567;-75
2023/07/06 10:37:24;;;;;;;5.57;3.00;;;29.80;1.00;;;;;;5013037;28;20214;-75
2023/07/06 10:40:20;;;;;;;4.97;2.87;;;29.20;1.00;;;;;;5011748;28;20592;-75
2023/07/06 10:42:51;;;;;;;5.57;3.28;;;31.30;1.00;;;;;;5012641;28;20186;-76
2023/07/06 10:45:39;;;;;;;5.50;3.05;;;33.00;1.00;;;;;;5012057;28;20718;-76
2023/07/06 10:48:14;;;;;;;5.20;2.75;;;33.50;1.00;;;;;;5013194;28;20200;-76
2023/07/06 10:50:46;;;;;;;4.78;2.92;;;34.20;1.00;;;;;;5013085;28;20196;-76
2023/07/06 10:53:25;;;;;;;6.18;3.10;;;33.30;1.00;;;;;;5012468;28;20185;-75
2023/07/06 10:56:02;;;;;;;5.53;3.10;;;31.80;1.00;;;;;;5013114;28;20272;-75
2023/07/06 10:58:30;;;;;;;4.47;3.05;;;31.70;1.00;;;;;;5011563;28;20208;-76
2023/07/06 11:00:58;;;;;;;4.85;3.00;;;30.80;1.00;;;;;;5013388;28;20302;-77
2023/07/06 11:03:31;;;;;;;6.30;3.30;;;30.20;1.00;;;;;;5012584;28;20181;-76
2023/07/06 11:06:37;;;;;;;4.90;2.80;;;30.00;1.00;;;;;;5011580;28;20574;-76
2023/07/06 11:09:13;;;;;;;6.82;3.10;;;32.10;1.00;;;;;;5012780;28;20182;-75
2023/07/06 11:12:04;;;;;;;4.55;2.75;;;34.80;1.00;;;;;;5011138;28;20177;-76
2023/07/06 11:14:34;;;;;;;5.25;2.97;;;36.90;1.00;;;;;;5006577;28;20591;-76
2023/07/06 11:17:10;;;;;;;6.43;3.38;;;38.50;1.00;;;;;;5004448;28;20197;-76
2023/07/06 11:19:41;;;;;;;4.63;2.90;;;38.80;1.00;;;;;;5011111;28;20216;-76
2023/07/06 11:22:11;;;;;;;5.53;3.00;;;39.10;1.00;;;;;;5012313;28;20197;-83
2023/07/06 11:24:48;;;;;;;5.57;2.83;;;39.60;1.00;;;;;;5012479;28;20550;-76
2023/07/06 11:27:35;;;;;;;6.57;2.80;;;39.90;1.00;;;;;;5012407;28;20201;-77
2023/07/06 11:30:14;;;;;;;5.47;2.88;;;38.90;1.00;;;;;;5005113;28;20193;-76
2023/07/06 11:32:42;;;;;;;6.50;3.00;;;38.80;1.00;;;;;;5011529;28;20224;-76
2023/07/06 11:35:26;;;;;;;5.85;2.78;;;38.80;1.00;;;;;;5009969;28;20221;-77
2023/07/06 11:37:57;;;;;;;4.35;2.50;;;39.80;1.00;;;;;;5011548;28;20201;-77
2023/07/06 11:41:02;;;;;;;5.45;2.80;;;39.70;1.00;;;;;;5012342;28;20292;-76
2023/07/06 11:43:49;;;;;;;6.38;3.00;;;37.50;1.00;;;;;;5011915;28;20211;-77
2023/07/06 11:46:17;;;;;;;6.00;2.97;;;36.60;1.00;;;;;;5004795;28;20319;-77
2023/07/06 11:49:17;;;;;;;4.50;2.70;;;38.20;1.00;;;;;;5010462;28;20265;-76
2023/07/06 11:51:47;;;;;;;4.60;2.60;;;39.40;1.00;;;;;;4978840;28;20197;-76
2023/07/06 11:54:39;;;;;;;5.47;2.30;;;39.20;1.00;;;;;;5010539;28;20182;-79
2023/07/06 11:57:24;;;;;;;4.38;2.85;;;38.50;1.00;;;;;;5011647;28;20209;-78
2023/07/06 12:00:07;;;;;;;5.20;2.80;;;37.90;1.00;;;;;;5011659;28;20208;-76
2023/07/06 12:02:32;;;;;;;4.47;2.53;;;37.40;1.00;;;;;;5011989;28;20228;-76
2023/07/06 12:04:58;;;;;;;6.25;2.83;;;36.00;1.00;;;;;;5011294;28;20205;-77
2023/07/06 12:07:26;;;;;;;9.38;3.00;;;36.50;1.00;;;;;;5011491;28;20285;-76
2023/07/06 12:09:52;;;;;;;6.60;2.97;;;36.10;1.00;;;;;;5011451;28;20665;-76
2023/07/06 12:12:22;;;;;;;5.18;2.75;;;35.40;1.00;;;;;;5011270;28;20225;-77
2023/07/06 12:14:48;;;;;;;5.25;3.03;;;34.30;1.00;;;;;;5011349;28;20655;-75
2023/07/06 12:17:14;;;;;;;6.03;3.10;;;33.30;1.00;;;;;;5010007;28;20221;-75
2023/07/06 12:19:41;;;;;;;5.78;2.95;;;32.40;1.00;;;;;;5009741;28;20209;-76
2023/07/06 12:22:15;;;;;;;6.28;2.70;;;31.80;1.00;;;;;;5011181;28;20190;-76
2023/07/06 12:24:42;;;;;;;5.00;2.90;;;33.10;1.00;;;;;;5011162;28;20177;-75
2023/07/06 12:27:16;;;;;;;5.93;2.75;;;33.90;1.00;;;;;;5011321;28;20202;-75
2023/07/06 12:29:45;;;;;;;4.65;2.92;;;33.30;1.00;;;;;;5010994;28;20197;-76
2023/07/06 12:32:21;;;;;;;5.53;2.95;;;32.50;1.00;;;;;;5009534;28;20623;-80
2023/07/06 12:34:52;;;;;;;5.57;3.00;;;31.80;1.00;;;;;;5010877;28;20292;-75
2023/07/06 12:37:20;;;;;;;4.43;3.00;;;31.90;1.00;;;;;;5011166;28;20213;-75
2023/07/06 12:39:47;;;;;;;6.20;3.20;;;32.30;1.00;;;;;;5010782;28;20516;-75
2023/07/06 12:42:16;;;;;;;5.05;3.00;;;33.50;1.00;;;;;;5011226;28;20217;-76
2023/07/06 12:44:44;;;;;;;6.18;2.80;;;32.50;1.00;;;;;;5009433;28;20281;-77
2023/07/06 12:47:32;;;;;;;11.68;3.63;;;31.60;1.00;;;;;;5010443;28;20210;-75
2023/07/06 12:50:00;;;;;;;6.45;3.10;;;30.40;1.00;;;;;;5011124;28;20706;-75
2023/07/06 12:52:25;;;;;;;9.07;3.00;;;29.80;1.00;;;;;;5009113;28;20659;-76
2023/07/06 12:54:54;;;;;;;6.55;3.00;;;29.60;1.00;;;;;;5008913;28;20254;-75
2023/07/06 12:57:25;;;;;;;7.45;3.08;;;30.00;1.00;;;;;;5009349;28;20259;-76
2023/07/06 13:00:06;;;;;;;5.32;3.33;;;29.90;1.00;;;;;;5010436;28;20224;-75
2023/07/06 13:02:36;;;;;;;4.88;2.80;;;30.60;1.00;;;;;;5010483;28;20173;-75
2023/07/06 13:05:14;;;;;;;7.63;3.45;;;32.40;1.00;;;;;;5010715;28;20181;-75
2023/07/06 13:07:40;;;;;;;4.90;3.10;;;31.80;1.00;;;;;;5010072;28;20297;-75
2023/07/06 13:10:13;;;;;;;4.65;2.83;;;31.40;1.00;;;;;;5010685;28;20220;-77
2023/07/06 13:12:42;;;;;;;4.80;3.10;;;30.90;1.00;;;;;;5010193;28;20217;-75